sensor_id;sensor_type;location;lat;lon;timestamp;temperature;humidity
20773;DHT22;10546;50.674;4.616;2023-02-11T03:49:41;6.70;99.90
20773;DHT22;10546;50.674;4.616;2023-02-11T03:52:08;6.80;99.90
20773;DHT22;10546;50.674;4.616;2023-02-11T03:54:37;6.70;99.90
20773;DHT22;10546;50.674;4.616;2023-02-11T03:57:06;6.70;99.90
20773;DHT22;10546;50.674;4.616;2023-02-11T03:59:55;6.80;99.90
20773;DHT22;10546;50.674;4.616;2023-02-11T04:02:24;6.90;99.90
20773;DHT22;10546;50.674;4.616;2023-02-11T04:04:51;6.80;99.90
20773;DHT22;10546;50.674;4.616;2023-02-11T04:07:17;6.80;99.90
20773;DHT22;10546;50.674;4.616;2023-02-11T04:09:43;6.80;99.90
20773;DHT22;10546;50.674;4.616;2023-02-11T04:12:08;6.70;99.90
20773;DHT22;10546;50.674;4.616;2023-02-11T04:14:34;6.70;99.90
20773;DHT22;10546;50.674;4.616;2023-02-11T04:16:59;6.70;99.90
20773;DHT22;10546;50.674;4.616;2023-02-11T04:19:25;6.70;99.90
20773;DHT22;10546;50.674;4.616;2023-02-11T04:21:51;6.70;99.90
20773;DHT22;10546;50.674;4.616;2023-02-11T04:24:16;6.70;99.90
20773;DHT22;10546;50.674;4.616;2023-02-11T04:26:42;6.70;99.90
20773;DHT22;10546;50.674;4.616;2023-02-11T04:29:07;6.80;99.90
20773;DHT22;10546;50.674;4.616;2023-02-11T04:31:33;6.70;99.90
20773;DHT22;10546;50.674;4.616;2023-02-11T04:33:58;6.80;99.90
20773;DHT22;10546;50.674;4.616;2023-02-11T04:36:24;6.60;99.90
20773;DHT22;10546;50.674;4.616;2023-02-11T04:38:50;6.70;99.90
20773;DHT22;10546;50.674;4.616;2023-02-11T04:41:15;6.60;99.90
20773;DHT22;10546;50.674;4.616;2023-02-11T04:43:41;6.80;99.90
20773;DHT22;10546;50.674;4.616;2023-02-11T04:46:06;6.60;99.90
20773;DHT22;10546;50.674;4.616;2023-02-11T04:48:32;6.60;99.90
20773;DHT22;10546;50.674;4.616;2023-02-11T04:50:59;6.70;99.90
20773;DHT22;10546;50.674;4.616;2023-02-11T04:53:25;6.60;99.90
20773;DHT22;10546;50.674;4.616;2023-02-11T04:55:50;6.70;99.90
20773;DHT22;10546;50.674;4.616;2023-02-11T04:58:17;6.70;99.90
20773;DHT22;10546;50.674;4.616;2023-02-11T05:00:43;6.70;99.90
20773;DHT22;10546;50.674;4.616;2023-02-11T05:03:09;7.00;99.90
20773;DHT22;10546;50.674;4.616;2023-02-11T05:05:38;6.80;99.90
20773;DHT22;10546;50.674;4.616;2023-02-11T05:08:05;6.80;99.90
20773;DHT22;10546;50.674;4.616;2023-02-11T05:10:30;6.60;99.90
20773;DHT22;10546;50.674;4.616;2023-02-11T05:12:56;6.70;99.90
20773;DHT22;10546;50.674;4.616;2023-02-11T05:15:22;6.60;99.90
20773;DHT22;10546;50.674;4.616;2023-02-11T05:17:47;6.60;99.90
20773;DHT22;10546;50.674;4.616;2023-02-11T08:47:24;7.40;99.90
20773;DHT22;10546;50.674;4.616;2023-02-11T08:49:50;7.40;99.90
20773;DHT22;10546;50.674;4.616;2023-02-11T08:52:16;7.40;99.90
20773;DHT22;10546;50.674;4.616;2023-02-11T08:54:41;7.40;99.90
20773;DHT22;10546;50.674;4.616;2023-02-11T08:57:07;7.30;99.90
20773;DHT22;10546;50.674;4.616;2023-02-11T08:59:33;7.50;99.90
20773;DHT22;10546;50.674;4.616;2023-02-11T09:01:59;7.50;99.90
20773;DHT22;10546;50.674;4.616;2023-02-11T09:04:24;7.50;99.90
20773;DHT22;10546;50.674;4.616;2023-02-11T09:06:50;7.70;99.90
20773;DHT22;10546;50.674;4.616;2023-02-11T09:09:16;7.70;99.90
20773;DHT22;10546;50.674;4.616;2023-02-11T09:11:43;7.70;99.90
20773;DHT22;10546;50.674;4.616;2023-02-11T09:14:19;7.80;99.90
20773;DHT22;10546;50.674;4.616;2023-02-11T09:16:45;7.80;99.90
20773;DHT22;10546;50.674;4.616;2023-02-11T09:19:11;7.70;99.90
20773;DHT22;10546;50.674;4.616;2023-02-11T09:21:37;7.70;99.90
20773;DHT22;10546;50.674;4.616;2023-02-11T09:24:04;7.80;99.90
20773;DHT22;10546;50.674;4.616;2023-02-11T09:26:33;7.90;99.90
20773;DHT22;10546;50.674;4.616;2023-02-11T09:29:03;7.80;99.90
20773;DHT22;10546;50.674;4.616;2023-02-11T09:31:32;7.90;99.90
20773;DHT22;10546;50.674;4.616;2023-02-11T09:34:03;7.80;99.90
20773;DHT22;10546;50.674;4.616;2023-02-11T09:36:35;7.80;99.90
20773;DHT22;10546;50.674;4.616;2023-02-11T09:39:12;7.90;99.90
20773;DHT22;10546;50.674;4.616;2023-02-11T09:44:24;7.80;99.90
20773;DHT22;10546;50.674;4.616;2023-02-11T09:47:01;7.80;99.90
20773;DHT22;10546;50.674;4.616;2023-02-11T09:49:38;7.90;99.90
20773;DHT22;10546;50.674;4.616;2023-02-11T09:54:57;7.90;99.90
20773;DHT22;10546;50.674;4.616;2023-02-11T09:57:30;7.80;99.90
20773;DHT22;10546;50.674;4.616;2023-02-11T09:59:56;7.80;99.90
20773;DHT22;10546;50.674;4.616;2023-02-11T10:03:01;7.80;99.90
20773;DHT22;10546;50.674;4.616;2023-02-11T10:16:38;8.00;99.90
20773;DHT22;10546;50.674;4.616;2023-02-11T10:19:14;8.00;99.90
20773;DHT22;10546;50.674;4.616;2023-02-11T10:21:46;7.90;99.90
20773;DHT22;10546;50.674;4.616;2023-02-11T10:24:17;8.00;99.90
20773;DHT22;10546;50.674;4.616;2023-02-11T10:26:44;8.10;99.90
20773;DHT22;10546;50.674;4.616;2023-02-11T10:29:37;8.10;99.90
20773;DHT22;10546;50.674;4.616;2023-02-11T10:35:21;8.30;99.90
20773;DHT22;10546;50.674;4.616;2023-02-11T10:37:48;8.40;99.90
20773;DHT22;10546;50.674;4.616;2023-02-11T10:40:17;8.40;99.90
20773;DHT22;10546;50.674;4.616;2023-02-11T10:42:50;8.40;99.90
20773;DHT22;10546;50.674;4.616;2023-02-11T10:45:24;8.50;99.90
20773;DHT22;10546;50.674;4.616;2023-02-11T10:47:50;8.60;99.90
20773;DHT22;10546;50.674;4.616;2023-02-11T10:50:25;8.60;99.90
20773;DHT22;10546;50.674;4.616;2023-02-11T10:52:50;8.60;99.90
20773;DHT22;10546;50.674;4.616;2023-02-11T10:55:19;8.50;99.90
20773;DHT22;10546;50.674;4.616;2023-02-11T10:57:53;8.60;99.90
20773;DHT22;10546;50.674;4.616;2023-02-11T11:00:30;8.70;99.90
20773;DHT22;10546;50.674;4.616;2023-02-11T11:02:59;8.70;99.90
20773;DHT22;10546;50.674;4.616;2023-02-11T11:05:34;8.80;99.90
20773;DHT22;10546;50.674;4.616;2023-02-11T11:08:07;8.80;99.90
20773;DHT22;10546;50.674;4.616;2023-02-11T11:13:00;8.70;99.90
20773;DHT22;10546;50.674;4.616;2023-02-11T11:15:27;8.70;99.90
20773;DHT22;10546;50.674;4.616;2023-02-11T11:20:38;8.70;99.90
20773;DHT22;10546;50.674;4.616;2023-02-11T11:23:13;8.80;99.90
20773;DHT22;10546;50.674;4.616;2023-02-11T11:25:43;8.60;99.90
20773;DHT22;10546;50.674;4.616;2023-02-11T11:28:22;8.70;99.90
20773;DHT22;10546;50.674;4.616;2023-02-11T11:30:51;8.70;99.90
20773;DHT22;10546;50.674;4.616;2023-02-11T11:33:27;8.70;99.90
20773;DHT22;10546;50.674;4.616;2023-02-11T11:36:03;8.60;99.90
20773;DHT22;10546;50.674;4.616;2023-02-11T11:38:31;8.70;99.90
20773;DHT22;10546;50.674;4.616;2023-02-11T11:41:27;8.60;99.90
20773;DHT22;10546;50.674;4.616;2023-02-11T11:46:33;8.60;99.90
20773;DHT22;10546;50.674;4.616;2023-02-11T11:49:22;8.80;99.90
20773;DHT22;10546;50.674;4.616;2023-02-11T11:54:33;8.90;99.90
20773;DHT22;10546;50.674;4.616;2023-02-11T11:57:03;9.00;99.90
20773;DHT22;10546;50.674;4.616;2023-02-11T11:59:29;8.90;99.90
20773;DHT22;10546;50.674;4.616;2023-02-11T12:05:11;9.00;99.90
20773;DHT22;10546;50.674;4.616;2023-02-11T12:15:51;9.00;99.90
20773;DHT22;10546;50.674;4.616;2023-02-11T12:18:49;9.00;99.90
20773;DHT22;10546;50.674;4.616;2023-02-11T12:27:07;8.90;99.90
20773;DHT22;10546;50.674;4.616;2023-02-11T12:43:38;9.00;99.90
20773;DHT22;10546;50.674;4.616;2023-02-11T12:46:23;9.10;99.90
20773;DHT22;10546;50.674;4.616;2023-02-11T12:57:17;9.10;99.90
20773;DHT22;10546;50.674;4.616;2023-02-11T13:05:08;9.10;99.90
20773;DHT22;10546;50.674;4.616;2023-02-11T13:07:40;9.00;99.90
20773;DHT22;10546;50.674;4.616;2023-02-11T13:12:49;9.00;99.90
20773;DHT22;10546;50.674;4.616;2023-02-11T13:15:35;8.90;99.90
20773;DHT22;10546;50.674;4.616;2023-02-11T13:18:25;9.00;99.90
20773;DHT22;10546;50.674;4.616;2023-02-11T13:24:01;9.30;99.90
20773;DHT22;10546;50.674;4.616;2023-02-11T13:29:32;9.40;99.90
20773;DHT22;10546;50.674;4.616;2023-02-11T13:32:10;9.40;99.90
20773;DHT22;10546;50.674;4.616;2023-02-11T13:37:31;9.10;99.90
20773;DHT22;10546;50.674;4.616;2023-02-11T13:42:28;9.20;99.90
20773;DHT22;10546;50.674;4.616;2023-02-11T13:44:54;9.00;99.90
20773;DHT22;10546;50.674;4.616;2023-02-11T13:47:32;9.30;99.90
20773;DHT22;10546;50.674;4.616;2023-02-11T13:50:01;9.30;99.90
20773;DHT22;10546;50.674;4.616;2023-02-11T13:52:37;9.30;99.90
20773;DHT22;10546;50.674;4.616;2023-02-11T13:57:39;9.30;99.90
20773;DHT22;10546;50.674;4.616;2023-02-11T14:00:49;9.20;99.90
20773;DHT22;10546;50.674;4.616;2023-02-11T14:11:53;9.30;99.90
20773;DHT22;10546;50.674;4.616;2023-02-11T14:14:31;9.50;99.90
20773;DHT22;10546;50.674;4.616;2023-02-11T14:22:01;9.40;99.90
20773;DHT22;10546;50.674;4.616;2023-02-11T14:38:13;9.40;99.90
20773;DHT22;10546;50.674;4.616;2023-02-11T14:40:57;9.40;99.90
20773;DHT22;10546;50.674;4.616;2023-02-11T14:43:29;9.40;99.90
20773;DHT22;10546;50.674;4.616;2023-02-11T14:45:57;9.40;99.90
20773;DHT22;10546;50.674;4.616;2023-02-11T14:48:34;9.40;99.90
20773;DHT22;10546;50.674;4.616;2023-02-11T14:53:32;9.60;99.90
20773;DHT22;10546;50.674;4.616;2023-02-11T14:56:03;9.70;99.90
20773;DHT22;10546;50.674;4.616;2023-02-11T14:58:45;9.60;99.90
20773;DHT22;10546;50.674;4.616;2023-02-11T15:01:32;9.60;99.90
20773;DHT22;10546;50.674;4.616;2023-02-11T15:04:00;9.60;99.90
20773;DHT22;10546;50.674;4.616;2023-02-11T15:06:34;9.50;99.90
20773;DHT22;10546;50.674;4.616;2023-02-11T15:11:37;9.50;99.90
20773;DHT22;10546;50.674;4.616;2023-02-11T15:16:44;9.60;99.90
20773;DHT22;10546;50.674;4.616;2023-02-11T15:19:22;9.60;99.90
20773;DHT22;10546;50.674;4.616;2023-02-11T15:21:49;9.50;99.90
20773;DHT22;10546;50.674;4.616;2023-02-11T15:24:42;9.60;99.90
20773;DHT22;10546;50.674;4.616;2023-02-11T15:27:13;9.50;99.90
20773;DHT22;10546;50.674;4.616;2023-02-11T15:29:48;9.60;99.90
20773;DHT22;10546;50.674;4.616;2023-02-11T15:32:17;9.70;99.90
20773;DHT22;10546;50.674;4.616;2023-02-11T15:34:44;9.80;99.90
20773;DHT22;10546;50.674;4.616;2023-02-11T15:37:27;9.90;99.90
20773;DHT22;10546;50.674;4.616;2023-02-11T15:40:09;9.70;99.90
20773;DHT22;10546;50.674;4.616;2023-02-11T15:42:35;9.80;99.90
20773;DHT22;10546;50.674;4.616;2023-02-11T15:45:31;9.90;99.90
20773;DHT22;10546;50.674;4.616;2023-02-11T15:48:08;9.90;99.90
20773;DHT22;10546;50.674;4.616;2023-02-11T15:50:35;9.90;99.90
20773;DHT22;10546;50.674;4.616;2023-02-11T15:53:35;9.90;99.90
20773;DHT22;10546;50.674;4.616;2023-02-11T15:56:11;9.90;99.90
20773;DHT22;10546;50.674;4.616;2023-02-11T15:58:39;9.70;99.90
20773;DHT22;10546;50.674;4.616;2023-02-11T16:01:06;9.60;99.90
20773;DHT22;10546;50.674;4.616;2023-02-11T16:03:33;9.70;99.90
20773;DHT22;10546;50.674;4.616;2023-02-11T16:06:36;9.80;99.90
20773;DHT22;10546;50.674;4.616;2023-02-11T16:09:20;9.80;99.90
20773;DHT22;10546;50.674;4.616;2023-02-11T16:17:02;9.80;99.90
20773;DHT22;10546;50.674;4.616;2023-02-11T16:19:29;9.70;99.90
20773;DHT22;10546;50.674;4.616;2023-02-11T16:21:57;9.70;99.90
20773;DHT22;10546;50.674;4.616;2023-02-11T16:24:27;9.60;99.90
20773;DHT22;10546;50.674;4.616;2023-02-11T16:27:00;9.60;99.90
20773;DHT22;10546;50.674;4.616;2023-02-11T16:29:31;9.60;99.90
20773;DHT22;10546;50.674;4.616;2023-02-11T16:32:09;9.60;99.90
20773;DHT22;10546;50.674;4.616;2023-02-11T16:34:35;9.70;99.90
20773;DHT22;10546;50.674;4.616;2023-02-11T16:37:03;9.70;99.90
20773;DHT22;10546;50.674;4.616;2023-02-11T16:39:29;9.70;99.90
20773;DHT22;10546;50.674;4.616;2023-02-11T16:41:55;9.70;99.90
20773;DHT22;10546;50.674;4.616;2023-02-11T16:44:21;9.70;99.90
20773;DHT22;10546;50.674;4.616;2023-02-11T16:46:48;9.70;99.90
20773;DHT22;10546;50.674;4.616;2023-02-11T16:51:48;9.80;99.90
20773;DHT22;10546;50.674;4.616;2023-02-11T16:54:15;9.70;99.90
20773;DHT22;10546;50.674;4.616;2023-02-11T16:56:42;9.70;99.90
20773;DHT22;10546;50.674;4.616;2023-02-11T16:59:08;9.70;99.90
20773;DHT22;10546;50.674;4.616;2023-02-11T17:01:35;9.80;99.90
20773;DHT22;10546;50.674;4.616;2023-02-11T17:04:01;9.80;99.90
20773;DHT22;10546;50.674;4.616;2023-02-11T17:06:27;9.80;99.90
20773;DHT22;10546;50.674;4.616;2023-02-11T17:08:53;9.80;99.90
20773;DHT22;10546;50.674;4.616;2023-02-11T17:11:18;9.80;99.90
20773;DHT22;10546;50.674;4.616;2023-02-11T17:13:44;9.70;99.90
20773;DHT22;10546;50.674;4.616;2023-02-11T17:16:18;9.80;99.90
20773;DHT22;10546;50.674;4.616;2023-02-11T17:18:46;9.80;99.90
20773;DHT22;10546;50.674;4.616;2023-02-11T17:21:12;9.90;99.90
20773;DHT22;10546;50.674;4.616;2023-02-11T17:23:37;9.90;99.90
20773;DHT22;10546;50.674;4.616;2023-02-11T17:26:03;9.90;99.90
20773;DHT22;10546;50.674;4.616;2023-02-11T17:28:29;9.80;99.90
20773;DHT22;10546;50.674;4.616;2023-02-11T17:30:56;9.90;99.90
20773;DHT22;10546;50.674;4.616;2023-02-11T17:33:22;9.90;99.90
20773;DHT22;10546;50.674;4.616;2023-02-11T17:35:48;9.90;99.90
20773;DHT22;10546;50.674;4.616;2023-02-11T17:38:14;9.90;99.90
20773;DHT22;10546;50.674;4.616;2023-02-11T17:40:39;9.90;99.90
20773;DHT22;10546;50.674;4.616;2023-02-11T17:43:05;9.80;99.90
20773;DHT22;10546;50.674;4.616;2023-02-11T17:45:30;9.90;99.90
20773;DHT22;10546;50.674;4.616;2023-02-11T17:47:56;9.80;99.90
20773;DHT22;10546;50.674;4.616;2023-02-11T17:50:22;9.70;99.90
20773;DHT22;10546;50.674;4.616;2023-02-11T17:52:47;9.70;99.90
20773;DHT22;10546;50.674;4.616;2023-02-11T17:55:13;9.90;99.90
20773;DHT22;10546;50.674;4.616;2023-02-11T17:57:38;9.70;99.90
20773;DHT22;10546;50.674;4.616;2023-02-11T18:00:07;9.80;99.90
20773;DHT22;10546;50.674;4.616;2023-02-11T18:02:33;9.80;99.90
20773;DHT22;10546;50.674;4.616;2023-02-11T18:04:59;9.80;99.90
20773;DHT22;10546;50.674;4.616;2023-02-11T18:07:25;9.70;99.90
20773;DHT22;10546;50.674;4.616;2023-02-11T18:09:51;9.70;99.90
20773;DHT22;10546;50.674;4.616;2023-02-11T18:12:17;9.70;99.90
20773;DHT22;10546;50.674;4.616;2023-02-11T18:14:50;9.80;99.90
20773;DHT22;10546;50.674;4.616;2023-02-11T18:17:19;9.70;99.90
20773;DHT22;10546;50.674;4.616;2023-02-11T18:19:44;9.80;99.90
20773;DHT22;10546;50.674;4.616;2023-02-11T18:22:10;9.70;99.90
20773;DHT22;10546;50.674;4.616;2023-02-11T18:24:36;9.70;99.90
20773;DHT22;10546;50.674;4.616;2023-02-11T18:27:01;9.70;99.90
20773;DHT22;10546;50.674;4.616;2023-02-11T18:29:27;9.70;99.90
20773;DHT22;10546;50.674;4.616;2023-02-11T18:31:56;9.70;99.90
20773;DHT22;10546;50.674;4.616;2023-02-11T18:34:21;9.80;99.90
20773;DHT22;10546;50.674;4.616;2023-02-11T18:36:47;9.80;99.90
20773;DHT22;10546;50.674;4.616;2023-02-11T18:39:14;9.80;99.90
20773;DHT22;10546;50.674;4.616;2023-02-11T18:41:40;9.70;99.90
20773;DHT22;10546;50.674;4.616;2023-02-11T18:44:08;9.70;99.90
20773;DHT22;10546;50.674;4.616;2023-02-11T18:46:33;9.80;99.90
20773;DHT22;10546;50.674;4.616;2023-02-11T18:48:59;9.70;99.90
20773;DHT22;10546;50.674;4.616;2023-02-11T18:51:25;9.70;99.90
20773;DHT22;10546;50.674;4.616;2023-02-11T18:53:52;9.50;99.90
20773;DHT22;10546;50.674;4.616;2023-02-11T18:56:22;9.50;99.90
20773;DHT22;10546;50.674;4.616;2023-02-11T18:58:48;9.60;99.90
20773;DHT22;10546;50.674;4.616;2023-02-11T19:01:16;9.50;99.90
20773;DHT22;10546;50.674;4.616;2023-02-11T19:03:43;9.60;99.90
20773;DHT22;10546;50.674;4.616;2023-02-11T19:06:16;9.50;99.90
20773;DHT22;10546;50.674;4.616;2023-02-11T19:08:42;9.50;99.90
20773;DHT22;10546;50.674;4.616;2023-02-11T19:11:08;9.50;99.90
20773;DHT22;10546;50.674;4.616;2023-02-11T19:13:34;9.50;99.90
20773;DHT22;10546;50.674;4.616;2023-02-11T19:16:04;9.40;99.90
20773;DHT22;10546;50.674;4.616;2023-02-11T19:18:30;9.40;99.90
20773;DHT22;10546;50.674;4.616;2023-02-11T19:20:55;9.40;99.90
20773;DHT22;10546;50.674;4.616;2023-02-11T19:23:21;9.50;99.90
20773;DHT22;10546;50.674;4.616;2023-02-11T19:25:47;9.40;99.90
20773;DHT22;10546;50.674;4.616;2023-02-11T19:28:13;9.40;99.90
20773;DHT22;10546;50.674;4.616;2023-02-11T19:30:39;9.50;99.90
20773;DHT22;10546;50.674;4.616;2023-02-11T19:33:05;9.50;99.90
20773;DHT22;10546;50.674;4.616;2023-02-11T19:35:33;9.40;99.90
20773;DHT22;10546;50.674;4.616;2023-02-11T19:38:00;9.60;99.90
20773;DHT22;10546;50.674;4.616;2023-02-11T19:40:26;9.30;99.90
20773;DHT22;10546;50.674;4.616;2023-02-11T19:42:51;9.40;99.90
20773;DHT22;10546;50.674;4.616;2023-02-11T19:45:17;9.40;99.90
20773;DHT22;10546;50.674;4.616;2023-02-11T19:47:43;9.30;99.90
20773;DHT22;10546;50.674;4.616;2023-02-11T19:50:09;9.30;99.90
20773;DHT22;10546;50.674;4.616;2023-02-11T19:52:37;9.30;99.90
20773;DHT22;10546;50.674;4.616;2023-02-11T19:55:02;9.40;99.90
20773;DHT22;10546;50.674;4.616;2023-02-11T19:57:28;9.30;99.90
20773;DHT22;10546;50.674;4.616;2023-02-11T19:59:53;9.30;99.90
20773;DHT22;10546;50.674;4.616;2023-02-11T20:02:21;9.20;99.90
20773;DHT22;10546;50.674;4.616;2023-02-11T20:04:47;9.40;99.90
20773;DHT22;10546;50.674;4.616;2023-02-11T20:07:13;9.20;99.90
20773;DHT22;10546;50.674;4.616;2023-02-11T20:09:38;9.40;99.90
20773;DHT22;10546;50.674;4.616;2023-02-11T20:12:05;9.30;99.90
20773;DHT22;10546;50.674;4.616;2023-02-11T20:14:31;9.20;99.90
20773;DHT22;10546;50.674;4.616;2023-02-11T20:16:56;9.20;99.90
20773;DHT22;10546;50.674;4.616;2023-02-11T20:19:22;9.20;99.90
20773;DHT22;10546;50.674;4.616;2023-02-11T20:21:50;9.30;99.90
20773;DHT22;10546;50.674;4.616;2023-02-11T20:24:17;9.30;99.90
20773;DHT22;10546;50.674;4.616;2023-02-11T20:26:43;9.40;99.90
20773;DHT22;10546;50.674;4.616;2023-02-11T20:29:10;9.30;99.90
20773;DHT22;10546;50.674;4.616;2023-02-11T20:31:36;9.40;99.90
20773;DHT22;10546;50.674;4.616;2023-02-11T20:34:02;9.40;99.90
20773;DHT22;10546;50.674;4.616;2023-02-11T20:36:30;9.30;99.90
20773;DHT22;10546;50.674;4.616;2023-02-11T20:38:57;9.30;99.90
20773;DHT22;10546;50.674;4.616;2023-02-11T20:41:26;9.30;99.90
20773;DHT22;10546;50.674;4.616;2023-02-11T20:43:54;9.30;99.90
20773;DHT22;10546;50.674;4.616;2023-02-11T20:46:22;9.30;99.90
20773;DHT22;10546;50.674;4.616;2023-02-11T20:48:49;9.40;99.90
20773;DHT22;10546;50.674;4.616;2023-02-11T20:51:21;9.30;99.90
20773;DHT22;10546;50.674;4.616;2023-02-11T20:53:47;9.20;99.90
20773;DHT22;10546;50.674;4.616;2023-02-11T20:56:17;9.30;99.90
20773;DHT22;10546;50.674;4.616;2023-02-11T20:58:43;9.30;99.90
20773;DHT22;10546;50.674;4.616;2023-02-11T21:01:22;9.30;99.90
20773;DHT22;10546;50.674;4.616;2023-02-11T21:04:00;9.30;99.90
20773;DHT22;10546;50.674;4.616;2023-02-11T21:06:31;9.30;99.90
20773;DHT22;10546;50.674;4.616;2023-02-11T21:08:57;9.20;99.90
20773;DHT22;10546;50.674;4.616;2023-02-11T21:11:23;9.20;99.90
20773;DHT22;10546;50.674;4.616;2023-02-11T21:13:49;9.20;99.90
20773;DHT22;10546;50.674;4.616;2023-02-11T21:16:18;9.20;99.90
20773;DHT22;10546;50.674;4.616;2023-02-11T21:18:48;9.30;99.90
20773;DHT22;10546;50.674;4.616;2023-02-11T21:21:15;9.20;99.90
20773;DHT22;10546;50.674;4.616;2023-02-11T21:23:40;9.30;99.90
20773;DHT22;10546;50.674;4.616;2023-02-11T21:26:07;9.20;99.90
20773;DHT22;10546;50.674;4.616;2023-02-11T21:28:33;9.20;99.90
20773;DHT22;10546;50.674;4.616;2023-02-11T21:30:59;9.20;99.90
20773;DHT22;10546;50.674;4.616;2023-02-11T21:33:26;9.30;99.90
20773;DHT22;10546;50.674;4.616;2023-02-11T21:35:56;9.20;99.90
20773;DHT22;10546;50.674;4.616;2023-02-11T21:38:23;9.20;99.90
20773;DHT22;10546;50.674;4.616;2023-02-11T21:40:49;9.30;99.90
20773;DHT22;10546;50.674;4.616;2023-02-11T21:43:14;9.30;99.90
20773;DHT22;10546;50.674;4.616;2023-02-11T21:45:45;9.40;99.90
20773;DHT22;10546;50.674;4.616;2023-02-11T21:48:11;9.20;99.90
20773;DHT22;10546;50.674;4.616;2023-02-11T21:50:38;9.20;99.90
20773;DHT22;10546;50.674;4.616;2023-02-11T21:53:04;9.20;99.90
20773;DHT22;10546;50.674;4.616;2023-02-11T21:55:30;9.30;99.90
20773;DHT22;10546;50.674;4.616;2023-02-11T21:57:55;9.20;99.90
20773;DHT22;10546;50.674;4.616;2023-02-11T22:00:21;9.20;99.90
20773;DHT22;10546;50.674;4.616;2023-02-11T22:02:47;9.30;99.90
20773;DHT22;10546;50.674;4.616;2023-02-11T22:05:12;9.20;99.90
20773;DHT22;10546;50.674;4.616;2023-02-11T22:07:38;9.20;99.90
20773;DHT22;10546;50.674;4.616;2023-02-11T22:10:04;9.10;99.90
20773;DHT22;10546;50.674;4.616;2023-02-11T22:12:29;9.20;99.90
20773;DHT22;10546;50.674;4.616;2023-02-11T22:14:55;9.30;99.90
20773;DHT22;10546;50.674;4.616;2023-02-11T22:17:21;9.20;99.90
20773;DHT22;10546;50.674;4.616;2023-02-11T22:19:47;9.40;99.90
20773;DHT22;10546;50.674;4.616;2023-02-11T22:22:13;9.30;99.90
20773;DHT22;10546;50.674;4.616;2023-02-11T22:24:43;9.30;99.90
20773;DHT22;10546;50.674;4.616;2023-02-11T22:27:14;9.40;99.90
20773;DHT22;10546;50.674;4.616;2023-02-11T22:29:40;9.30;99.90
20773;DHT22;10546;50.674;4.616;2023-02-11T22:32:06;9.40;99.90
20773;DHT22;10546;50.674;4.616;2023-02-11T22:34:31;9.30;99.90
20773;DHT22;10546;50.674;4.616;2023-02-11T22:36:57;9.30;99.90
20773;DHT22;10546;50.674;4.616;2023-02-11T22:39:22;9.30;99.90
20773;DHT22;10546;50.674;4.616;2023-02-11T22:41:48;9.30;99.90
20773;DHT22;10546;50.674;4.616;2023-02-11T22:44:14;9.20;99.90
20773;DHT22;10546;50.674;4.616;2023-02-11T22:46:44;9.10;99.90
20773;DHT22;10546;50.674;4.616;2023-02-11T22:49:12;9.20;99.90
20773;DHT22;10546;50.674;4.616;2023-02-11T22:51:38;9.20;99.90
20773;DHT22;10546;50.674;4.616;2023-02-11T22:54:06;9.20;99.90
